Airfield :
LOGIN :

Register | Disclaimer

   EN    FR    IT 

 










Legend :    VFR   Marginal VFR   IFR   Intensive IFR   Very Intensive IFR
Visi :
Ceiling :
>= 8 km
>= 3000ft
5 to 8 km
1000 to 3000 ft
1500m to 5 km
500 to 1000 ft
800 to 1500m
200 to 500 ft
< 800m
< 200 ft
Symbols :   Thunderstorms  Fog  Heavy snow  Heavy precipitations  Wind > 20 kt
SIGMETs :     Misc.  Thunderstorms  Icing  Turbulence  Mountain Waves  Volcanic Ashes







- Airport Elevation : 308 ft
- IATA code : MHG


EDFM - Mannheim-City

CURRENT METAR :
  • 251120Z VRB02KT CAVOK 19/09 Q1020

EXPIRED METARs :
  • 251050Z VRB03KT CAVOK 18/10 Q1020
  • 251020Z VRB02KT CAVOK 18/09 Q1020
  • 250950Z VRB02KT CAVOK 17/10 Q1020
  • 250920Z VRB01KT CAVOK 17/10 Q1020
  • 250850Z VRB01KT CAVOK 16/10 Q1020
  • 250820Z VRB02KT CAVOK 14/11 Q1020

TAF TAF EDFM
Valid from the 25 at 09:00 until the 25 at 18:00 UTC


250800Z 2509/2518 01005KT CAVOK
No reported NOTAMs for that airfield.



MET'MAP, your aeronautical weather chart ! - Copyright ORBIFLY December 2007 - Disclaimer

ORBIFLY MET'MAP TEAM :

Programming & Development : Alexandra Zaïnal
Concept & Development : Baudouin d'Aumeries
Co-Development & Prog : Marc-Olivier Méhu
Technical & hardware support : Manuel Goepfert

Contact : metmap@orbifly.com




SOURCES & CREDITS :

   NOAA